aviador You're here:

LFQB Decoded Metar

TROYES in FRANCE
Report Time2017-11-21 04:00:00
UTC Time2017-11-21 04:14:50
Flight Rules mvfr MVFR
Wind220° at 10 kt
W.Decomp.*RWY 23: 9.8 kt HW 1.7 kt LCW
RWY 17: 6.4 kt HW 7.7 kt RCW
W.Rank220° ranks 12
Current wind is above 220° avg. (9.9)
Visibility9999 m
Phenomena:N/A
Clouds:Broken 013 Hf
Broken 096 Hf
Expected CloudBase > 800 ft AGL from Temp-Dew spread
Ceiling1,300 ft
Temp08°C (ISA -6)
Dew Point06°C (87% RH)
AAT3.5°C
QNH1019 hPa
Density Alt-436 ft
Elevation387 ft
Report Wrong Elevation
Raw Report
LFQB 210400Z AUTO 22010KT 9999 BKN013 BKN096 08/06 Q1019=

Extra information for LFQB:More info

Metar Taf Metar & Taf Last 4 Metars F.Rules Stats Wind Profile Meteogram Temp Stats Airport Information Weather charts Add Link Nearby VenuesMetar ALERT Operation Metar Decoded Social comments